Time;durP1;ratioP1;P1;durP2;ratioP2;P2;SDS_P1;SDS_P2;PMS_P1;PMS_P2;Temp;Humidity;BMP_temperature;BMP_pressure;BME280_temperature;BME280_humidity;BME280_pressure;Samples;Min_cycle;Max_cycle;Signal;HPM_P1;HPM_P2
2022/04/22 00:01:16;322221.00;1.07;556.12;0.00;0.00;0.62;;;;;10.90;1.00;;;;;;2277157;61;924;-83
2022/04/22 00:03:43;280828.00;0.94;484.96;0.00;0.00;0.62;;;;;11.10;1.00;;;;;;2277085;61;1137;-83
2022/04/22 00:06:10;259091.00;0.86;447.59;0.00;0.00;0.62;;;;;11.10;1.00;;;;;;2277069;61;1032;-83
2022/04/22 00:08:37;269791.00;0.90;465.98;12550.00;0.04;22.37;;;;;10.90;1.00;;;;;;2276980;61;1390;-83
2022/04/22 00:13:50;0.00;0.00;0.62;0.00;0.00;0.62;;;;;10.40;1.00;;;;;;2276901;61;677;-83
2022/04/22 00:16:17;33636.00;0.11;58.88;0.00;0.00;0.62;;;;;10.20;1.00;;;;;;2276855;61;1919;-83
2022/04/22 00:18:44;216261.00;0.72;373.91;0.00;0.00;0.62;;;;;9.90;1.00;;;;;;2276901;61;1386;-83
2022/04/22 00:21:12;248389.00;0.83;429.18;0.00;0.00;0.62;;;;;9.90;1.00;;;;;;2276845;61;1156;-83
2022/04/22 00:23:39;174798.00;0.58;302.53;0.00;0.00;0.62;;;;;9.90;1.00;;;;;;2276824;61;1039;-83
2022/04/22 00:26:06;211942.00;0.71;366.48;0.00;0.00;0.62;;;;;9.90;1.00;;;;;;2276888;61;1123;-83
2022/04/22 00:28:33;313988.00;1.05;541.96;0.00;0.00;0.62;;;;;9.80;1.00;;;;;;2276812;61;1388;-83
2022/04/22 00:31:01;258165.00;0.86;445.99;0.00;0.00;0.62;;;;;10.00;1.00;;;;;;2276741;61;1141;-82
2022/04/22 00:33:28;244105.00;0.81;421.81;0.00;0.00;0.62;;;;;10.30;1.00;;;;;;2276931;61;1065;-83
2022/04/22 00:35:55;251027.00;0.84;433.72;0.00;0.00;0.62;;;;;10.40;1.00;;;;;;2276920;61;1994;-83
2022/04/22 00:38:21;326208.00;1.09;562.97;0.00;0.00;0.62;;;;;10.90;1.00;;;;;;2276798;61;1039;-83
2022/04/22 00:40:48;442592.00;1.48;763.04;41090.00;0.14;71.77;;;;;11.00;1.00;;;;;;2276852;61;1222;-83
2022/04/22 00:43:19;266863.00;0.89;460.95;0.00;0.00;0.62;;;;;10.90;1.00;;;;;;2276939;61;1045;-83
2022/04/22 00:45:47;303226.00;1.01;523.47;0.00;0.00;0.62;;;;;10.80;1.00;;;;;;2276846;61;1042;-84
2022/04/22 00:48:16;329108.00;1.10;567.95;0.00;0.00;0.62;;;;;10.70;1.00;;;;;;2276901;61;1332;-84
2022/04/22 00:50:43;231869.00;0.77;400.76;0.00;0.00;0.62;;;;;10.80;1.00;;;;;;2276898;61;1449;-83
2022/04/22 00:53:11;239766.00;0.80;414.35;0.00;0.00;0.62;;;;;11.00;1.00;;;;;;2276953;61;1011;-84
2022/04/22 00:55:40;294372.00;0.98;508.25;0.00;0.00;0.62;;;;;10.90;1.00;;;;;;2276799;61;2006;-83
2022/04/22 00:58:08;315072.00;1.05;543.83;0.00;0.00;0.62;;;;;10.90;1.00;;;;;;2276408;61;1191;-84
2022/04/22 01:00:36;184304.00;0.61;318.90;0.00;0.00;0.62;;;;;10.90;1.00;;;;;;2276761;61;1312;-83
2022/04/22 01:03:03;304853.00;1.02;526.26;0.00;0.00;0.62;;;;;10.50;1.00;;;;;;2276799;61;1114;-84
2022/04/22 01:11:02;43560.00;0.15;76.05;0.00;0.00;0.62;;;;;10.20;1.00;;;;;;2276805;61;619;-83
2022/04/22 01:13:31;269912.00;0.90;466.19;0.00;0.00;0.62;;;;;9.90;1.00;;;;;;2276848;61;1097;-83
2022/04/22 01:15:58;291091.00;0.97;502.60;0.00;0.00;0.62;;;;;10.20;1.00;;;;;;2276743;61;1999;-83
2022/04/22 01:18:25;268967.00;0.90;464.57;0.00;0.00;0.62;;;;;10.70;1.00;;;;;;2276810;61;1678;-83
2022/04/22 01:20:53;224759.00;0.75;388.53;0.00;0.00;0.62;;;;;11.00;1.00;;;;;;2276747;61;1281;-83
2022/04/22 01:23:21;514896.00;1.72;887.47;13425.00;0.04;23.88;;;;;10.70;1.00;;;;;;2276747;61;1062;-84
2022/04/22 01:25:48;329621.00;1.10;568.83;0.00;0.00;0.62;;;;;11.00;1.00;;;;;;2276690;61;1058;-83
2022/04/22 01:28:15;233850.00;0.78;404.17;0.00;0.00;0.62;;;;;11.40;1.00;;;;;;2276831;61;1071;-84
2022/04/22 01:30:42;165138.00;0.55;285.89;0.00;0.00;0.62;;;;;11.70;1.00;;;;;;2276583;61;1410;-83
2022/04/22 01:33:09;365564.00;1.22;630.61;0.00;0.00;0.62;;;;;11.30;1.00;;;;;;2276576;61;961;-83
2022/04/22 01:35:36;347847.00;1.16;600.16;0.00;0.00;0.62;;;;;10.90;1.00;;;;;;2276690;61;1912;-82
2022/04/22 01:38:03;347467.00;1.16;599.51;0.00;0.00;0.62;;;;;10.40;1.00;;;;;;2276682;61;1103;-83
2022/04/22 01:40:32;585240.00;1.95;1008.74;102152.00;0.34;177.29;;;;;10.00;1.00;;;;;;2276595;61;1377;-83
2022/04/22 01:42:59;463649.00;1.55;799.26;25385.00;0.08;44.59;;;;;9.90;1.00;;;;;;2276754;61;1059;-84
2022/04/22 01:45:26;536787.00;1.79;925.19;81969.00;0.27;142.44;;;;;10.20;1.00;;;;;;2276651;61;1107;-83
2022/04/22 01:47:52;626125.00;2.09;1079.35;88140.00;0.29;153.10;;;;;10.10;1.00;;;;;;2276625;61;918;-83
2022/04/22 01:50:19;532953.00;1.78;918.58;87940.00;0.29;152.75;;;;;10.00;1.00;;;;;;2276624;61;1422;-83
2022/04/22 01:52:46;399120.00;1.33;688.29;88546.00;0.30;153.80;;;;;10.10;1.00;;;;;;2276677;61;1035;-84
2022/04/22 01:55:13;578268.00;1.93;996.71;82397.00;0.27;143.18;;;;;10.20;1.00;;;;;;2276708;61;1992;-83
2022/04/22 01:57:42;510720.00;1.70;880.28;111346.00;0.37;193.15;;;;;10.60;1.00;;;;;;2276703;61;1011;-83
2022/04/22 02:00:10;461738.00;1.54;795.97;88822.00;0.30;154.27;;;;;10.90;1.00;;;;;;2276585;61;1389;-83
2022/04/22 02:02:37;245023.00;0.82;423.39;0.00;0.00;0.62;;;;;10.90;1.00;;;;;;2276667;61;1011;-83
2022/04/22 02:05:05;288195.00;0.96;497.63;0.00;0.00;0.62;;;;;11.20;1.00;;;;;;2276654;61;1054;-83
2022/04/22 02:07:32;223939.00;0.75;387.12;0.00;0.00;0.62;;;;;11.40;1.00;;;;;;2276688;61;1063;-83
2022/04/22 02:09:59;343961.00;1.15;593.48;0.00;0.00;0.62;;;;;11.60;1.00;;;;;;2276564;61;1303;-83
2022/04/22 02:12:26;271540.00;0.91;468.99;0.00;0.00;0.62;;;;;11.90;1.00;;;;;;2276622;61;1093;-83
2022/04/22 02:14:55;272220.00;0.91;470.16;0.00;0.00;0.62;;;;;11.70;1.00;;;;;;2276427;61;1055;-83
2022/04/22 02:17:21;420025.00;1.40;724.23;0.00;0.00;0.62;;;;;10.60;1.00;;;;;;2276469;61;1928;-83
2022/04/22 02:19:48;517402.00;1.72;891.79;86904.00;0.29;150.96;;;;;9.90;1.00;;;;;;2276536;61;1404;-82
2022/04/22 02:22:15;455335.00;1.52;784.96;91860.00;0.31;159.52;;;;;10.00;1.00;;;;;;2276612;61;1043;-84
2022/04/22 02:24:42;470591.00;1.57;811.21;78939.00;0.26;137.20;;;;;10.50;1.00;;;;;;2276490;61;1083;-85
2022/04/22 02:29:54;203593.00;0.68;352.11;0.00;0.00;0.62;;;;;11.30;1.00;;;;;;2276485;61;1319;-84
2022/04/22 02:32:21;575459.00;1.92;991.86;91055.00;0.30;158.13;;;;;11.70;1.00;;;;;;2276592;61;1157;-83
2022/04/22 02:34:48;436277.00;1.45;752.18;89198.00;0.30;154.92;;;;;12.00;1.00;;;;;;2276402;61;1084;-84
2022/04/22 02:37:15;543694.00;1.81;937.09;127716.00;0.43;221.39;;;;;12.20;1.00;;;;;;2276492;61;1918;-83
2022/04/22 02:39:42;388053.00;1.29;669.27;84621.00;0.28;147.02;;;;;12.30;1.00;;;;;;2276524;61;1419;-84
2022/04/22 02:45:27;468986.00;1.56;808.44;83767.00;0.28;145.54;;;;;12.50;1.00;;;;;;2263968;61;1633;-84
2022/04/22 02:47:54;562464.00;1.87;969.45;54463.00;0.18;94.90;;;;;12.80;1.00;;;;;;2275701;61;1072;-85
2022/04/22 02:50:21;303174.00;1.01;523.38;0.00;0.00;0.62;;;;;13.20;1.00;;;;;;2276421;61;1320;-84
2022/04/22 02:52:48;303700.00;1.01;524.28;0.00;0.00;0.62;;;;;13.40;1.00;;;;;;2276523;61;1082;-84
2022/04/22 02:55:15;413791.00;1.38;713.51;0.00;0.00;0.62;;;;;13.60;1.00;;;;;;2276418;61;1109;-84
2022/04/22 02:57:44;454331.00;1.51;783.23;0.00;0.00;0.62;;;;;13.40;1.00;;;;;;2276447;61;2008;-84
2022/04/22 03:00:14;502156.00;1.67;865.54;0.00;0.00;0.62;;;;;13.50;1.00;;;;;;2276462;61;1365;-84
2022/04/22 03:02:42;512665.00;1.71;883.63;0.00;0.00;0.62;;;;;13.10;1.00;;;;;;2276522;61;1067;-84
2022/04/22 03:05:10;329249.00;1.10;568.20;0.00;0.00;0.62;;;;;12.60;1.00;;;;;;2276444;61;1049;-84
2022/04/22 03:07:37;210288.00;0.70;363.63;0.00;0.00;0.62;;;;;12.70;1.00;;;;;;2276373;61;1024;-83
2022/04/22 03:10:04;366852.00;1.22;632.83;0.00;0.00;0.62;;;;;12.70;1.00;;;;;;2276451;61;1282;-83
2022/04/22 03:12:31;243256.00;0.81;420.35;0.00;0.00;0.62;;;;;13.10;1.00;;;;;;2276390;61;1045;-84
2022/04/22 03:14:58;224893.00;0.75;388.76;0.00;0.00;0.62;;;;;13.10;1.00;;;;;;2276489;61;1122;-84
2022/04/22 03:17:27;243353.00;0.81;420.52;0.00;0.00;0.62;;;;;13.00;1.00;;;;;;2276413;61;1998;-84
2022/04/22 03:19:54;253167.00;0.84;437.40;0.00;0.00;0.62;;;;;13.20;1.00;;;;;;2276453;61;1376;-84
2022/04/22 03:22:20;368461.00;1.23;635.59;0.00;0.00;0.62;;;;;13.60;1.00;;;;;;2276373;61;1119;-85
2022/04/22 03:24:48;355359.00;1.18;613.07;26790.00;0.09;47.03;;;;;13.50;1.00;;;;;;2276430;61;995;-84
2022/04/22 03:27:15;240563.00;0.80;415.72;0.00;0.00;0.62;;;;;13.60;1.00;;;;;;2276996;61;1057;-84
2022/04/22 03:29:42;258322.00;0.86;446.26;0.00;0.00;0.62;;;;;13.50;1.00;;;;;;2277107;61;1339;-84
2022/04/22 03:32:10;306914.00;1.02;529.80;0.00;0.00;0.62;;;;;13.40;1.00;;;;;;2277154;61;1089;-84
2022/04/22 03:34:39;269068.00;0.90;464.74;0.00;0.00;0.62;;;;;13.10;1.00;;;;;;2277158;61;1019;-84
2022/04/22 03:37:07;212400.00;0.71;367.27;0.00;0.00;0.62;;;;;12.90;1.00;;;;;;2277017;61;1919;-83
2022/04/22 03:39:33;511153.00;1.70;881.03;49191.00;0.16;85.79;;;;;13.10;1.00;;;;;;2276989;61;1500;-85
2022/04/22 03:42:00;369671.00;1.23;637.67;0.00;0.00;0.62;;;;;13.10;1.00;;;;;;2277137;61;1134;-85
2022/04/22 03:44:28;177538.00;0.59;307.25;0.00;0.00;0.62;;;;;13.10;1.00;;;;;;2277096;61;1026;-84
2022/04/22 03:46:55;237892.00;0.79;411.13;0.00;0.00;0.62;;;;;13.20;1.00;;;;;;2277117;61;1094;-85
2022/04/22 03:49:22;276817.00;0.92;478.06;0.00;0.00;0.62;;;;;13.30;1.00;;;;;;2277090;61;1402;-84
2022/04/22 03:51:50;188593.00;0.63;326.29;0.00;0.00;0.62;;;;;13.80;1.00;;;;;;2277024;61;1038;-86
2022/04/22 03:54:22;246248.00;0.82;425.50;0.00;0.00;0.62;;;;;13.90;1.00;;;;;;2277024;61;1071;-84
2022/04/22 03:59:33;0.00;0.00;0.62;0.00;0.00;0.62;;;;;14.20;1.00;;;;;;2277039;61;1430;-84
2022/04/22 04:02:00;308036.00;1.03;531.73;0.00;0.00;0.62;;;;;14.30;1.00;;;;;;2277047;61;1028;-85
2022/04/22 04:04:27;245877.00;0.82;424.86;0.00;0.00;0.62;;;;;14.50;1.00;;;;;;2276984;61;1301;-85
2022/04/22 04:06:55;206497.00;0.69;357.11;0.00;0.00;0.62;;;;;14.70;1.00;;;;;;2277064;61;1096;-85
2022/04/22 04:17:36;0.00;0.00;0.62;0.00;0.00;0.62;;;;;13.50;1.00;;;;;;2277039;61;1919;-85
2022/04/22 04:25:33;151315.00;0.50;262.07;0.00;0.00;0.62;;;;;13.70;1.00;;;;;;2277034;61;632;-85
2022/04/22 04:28:00;142305.00;0.47;246.54;0.00;0.00;0.62;;;;;14.10;1.00;;;;;;2276978;61;993;-85
2022/04/22 04:30:27;190172.00;0.63;329.00;21695.00;0.07;38.21;;;;;14.20;1.00;;;;;;2276792;61;1387;-85
2022/04/22 04:32:54;166200.00;0.55;287.72;0.00;0.00;0.62;;;;;13.90;1.00;;;;;;2276967;61;1105;-84
2022/04/22 04:35:21;191995.00;0.64;332.14;0.00;0.00;0.62;;;;;13.40;1.00;;;;;;2276995;61;926;-86
2022/04/22 04:37:49;642954.00;2.14;1108.45;0.00;0.00;0.62;;;;;13.60;1.00;;;;;;2276770;61;1988;-86
2022/04/22 04:40:16;276964.00;0.92;478.32;0.00;0.00;0.62;;;;;13.90;1.00;;;;;;2276901;61;1322;-85
2022/04/22 04:42:42;236415.00;0.79;408.58;0.00;0.00;0.62;;;;;13.70;1.00;;;;;;2276886;61;1090;-85
2022/04/22 04:45:10;123889.00;0.41;214.79;0.00;0.00;0.62;;;;;13.90;1.00;;;;;;2276907;61;1138;-85
2022/04/22 04:47:40;206311.00;0.69;356.79;17136.00;0.06;30.31;;;;;13.80;1.00;;;;;;2276801;61;1122;-85
2022/04/22 04:50:09;223915.00;0.75;387.08;0.00;0.00;0.62;;;;;14.00;1.00;;;;;;2276803;61;1299;-85
2022/04/22 04:52:37;375633.00;1.25;647.92;52951.00;0.18;92.29;;;;;13.60;1.00;;;;;;2276907;61;1134;-85
2022/04/22 04:55:06;232394.00;0.77;401.67;0.00;0.00;0.62;;;;;13.00;1.00;;;;;;2276868;61;1020;-85
2022/04/22 04:57:33;114508.00;0.38;198.61;0.00;0.00;0.62;;;;;13.00;1.00;;;;;;2276875;61;1998;-85
2022/04/22 05:00:00;192551.00;0.64;333.10;0.00;0.00;0.62;;;;;12.40;1.00;;;;;;2276746;61;1293;-85
2022/04/22 05:02:27;210907.00;0.70;364.70;0.00;0.00;0.62;;;;;12.10;1.00;;;;;;2276780;61;1033;-85
2022/04/22 05:04:54;256092.00;0.85;442.43;0.00;0.00;0.62;;;;;12.10;1.00;;;;;;2276830;61;921;-85
2022/04/22 05:07:21;188586.00;0.63;326.27;0.00;0.00;0.62;;;;;12.30;1.00;;;;;;2276844;61;1081;-85
2022/04/22 05:09:48;265837.00;0.89;459.19;0.00;0.00;0.62;;;;;12.30;1.00;;;;;;2276805;61;1341;-84
2022/04/22 05:12:16;374686.00;1.25;646.29;86631.00;0.29;150.49;;;;;12.10;1.00;;;;;;2276840;61;1019;-84
2022/04/22 05:14:44;427642.00;1.43;737.33;82864.00;0.28;143.98;;;;;12.20;1.00;;;;;;2276795;61;1090;-82
2022/04/22 05:17:11;293778.00;0.98;507.22;98265.00;0.33;170.58;;;;;12.40;1.00;;;;;;2276805;61;1998;-83
2022/04/22 05:19:37;340471.00;1.13;587.48;96197.00;0.32;167.01;;;;;12.40;1.00;;;;;;2276759;61;1403;-83
2022/04/22 05:22:05;343814.00;1.15;593.23;106511.00;0.36;184.81;;;;;12.10;1.00;;;;;;2276636;61;1056;-83
2022/04/22 05:24:32;389437.00;1.30;671.65;94061.00;0.31;163.32;;;;;12.00;1.00;;;;;;2276645;61;1052;-84
2022/04/22 05:27:00;459085.00;1.53;791.41;89576.00;0.30;155.58;;;;;12.20;1.00;;;;;;2276626;61;1149;-83
2022/04/22 05:34:56;238939.00;0.80;412.93;23187.00;0.08;40.79;;;;;14.10;1.00;;;;;;2276704;61;673;-84
2022/04/22 05:37:23;168866.00;0.56;292.31;0.00;0.00;0.62;;;;;15.00;1.00;;;;;;2276500;61;1994;-84
2022/04/22 05:39:50;145582.00;0.49;252.19;0.00;0.00;0.62;;;;;15.60;1.00;;;;;;2276702;61;1386;-84
2022/04/22 05:42:17;331087.00;1.10;571.35;0.00;0.00;0.62;;;;;16.00;1.00;;;;;;2276286;61;1651;-83
2022/04/22 05:44:45;534711.00;1.78;921.61;85176.00;0.28;147.98;;;;;16.90;1.00;;;;;;2276614;61;1028;-84
2022/04/22 05:47:12;248060.00;0.83;428.61;87130.00;0.29;151.35;;;;;17.40;1.00;;;;;;2276695;61;1074;-84
2022/04/22 05:49:39;352672.00;1.18;608.45;82779.00;0.28;143.84;;;;;17.60;1.00;;;;;;2276464;61;1381;-84
2022/04/22 05:52:07;372809.00;1.24;643.06;87209.00;0.29;151.49;;;;;18.30;1.00;;;;;;2276740;61;1121;-84
2022/04/22 05:54:34;444366.00;1.48;766.09;89043.00;0.30;154.66;;;;;18.50;1.00;;;;;;2276615;61;1119;-84
2022/04/22 05:57:01;434137.00;1.45;748.50;83337.00;0.28;144.80;;;;;18.90;1.00;;;;;;2276699;61;1919;-83
2022/04/22 05:59:28;527076.00;1.76;908.45;79158.00;0.26;137.58;;;;;19.50;1.00;;;;;;2276613;61;1347;-84
2022/04/22 06:01:56;465439.00;1.55;802.34;74429.00;0.25;129.41;;;;;19.50;1.00;;;;;;2276707;61;1690;-83
2022/04/22 06:04:23;492205.00;1.64;848.40;87033.00;0.29;151.18;;;;;19.50;1.00;;;;;;2276472;61;1050;-84
2022/04/22 06:06:50;486928.00;1.62;839.32;84108.00;0.28;146.13;;;;;19.70;1.00;;;;;;2276445;61;1786;-84
2022/04/22 06:12:02;278532.00;0.93;481.01;0.00;0.00;0.62;;;;;20.00;1.00;;;;;;2276521;61;745;-84
2022/04/22 06:14:29;382511.00;1.28;659.74;93924.00;0.31;163.08;;;;;20.40;1.00;;;;;;2276393;61;945;-84
2022/04/22 06:16:57;417300.00;1.39;719.55;89862.00;0.30;156.07;;;;;20.70;1.00;;;;;;2276491;61;1915;-84
2022/04/22 06:19:24;294660.00;0.98;508.74;86019.00;0.29;149.43;;;;;20.70;1.00;;;;;;2276506;61;1368;-85
2022/04/22 06:21:51;358885.00;1.20;619.13;80045.00;0.27;139.12;;;;;21.30;1.00;;;;;;2276218;61;1030;-82
2022/04/22 06:24:17;117098912.00;390.33;65040548.00;91230.00;0.30;158.43;;;;;20.90;1.00;;;;;;2276385;61;1026;-83
2022/04/22 06:26:44;391219.00;1.30;674.71;79975.00;0.27;138.99;;;;;19.80;1.00;;;;;;2276641;61;1086;-83
2022/04/22 06:29:12;310499.00;1.03;535.97;82034.00;0.27;142.55;;;;;19.60;1.00;;;;;;2276382;61;1384;-83
2022/04/22 06:31:39;200339.00;0.67;346.51;81530.00;0.27;141.68;;;;;19.00;1.00;;;;;;2276469;61;1094;-83
2022/04/22 06:34:08;260031.00;0.87;449.20;75198.00;0.25;130.74;;;;;18.10;1.00;;;;;;2276333;61;1028;-83
2022/04/22 06:36:35;252442.00;0.84;436.15;88460.00;0.29;153.65;;;;;17.30;1.00;;;;;;2276274;61;2001;-83
2022/04/22 06:39:03;267414.00;0.89;461.90;91568.00;0.31;159.02;;;;;17.40;1.00;;;;;;2276549;61;1389;-84
2022/04/22 06:47:09;330505.00;1.10;570.35;80417.00;0.27;139.76;;;;;18.20;1.00;;;;;;2276209;61;1284;-83
2022/04/22 06:49:37;177202.00;0.59;306.67;86976.00;0.29;151.09;;;;;19.00;1.00;;;;;;2276369;61;1733;-84
2022/04/22 06:52:06;175486.00;0.58;303.72;80943.00;0.27;140.67;;;;;20.10;1.00;;;;;;2276380;61;1135;-86
2022/04/22 06:54:34;171868.00;0.57;297.48;84423.00;0.28;146.68;;;;;21.00;1.00;;;;;;2276424;61;1126;-87
2022/04/22 06:57:01;225617.00;0.75;390.01;75044.00;0.25;130.48;;;;;21.00;1.00;;;;;;2276253;61;1996;-87
2022/04/22 06:59:31;322703.00;1.08;556.94;134088.00;0.45;232.38;;;;;20.70;1.00;;;;;;2276015;61;1742;-86
2022/04/22 07:01:58;170588.00;0.57;295.28;97717.00;0.33;169.63;;;;;20.90;1.00;;;;;;2277812;61;1126;-85
2022/04/22 07:04:26;220647.00;0.74;381.46;100523.00;0.34;174.47;;;;;19.50;1.00;;;;;;2277699;61;1106;-87
2022/04/22 07:06:54;184330.00;0.61;318.95;79076.00;0.26;137.44;;;;;19.80;1.00;;;;;;2277362;61;1135;-84
2022/04/22 07:09:21;218529.00;0.73;377.81;64685.00;0.22;112.58;;;;;20.30;1.00;;;;;;2277404;61;1411;-86
2022/04/22 07:11:53;275201.00;0.92;475.29;69871.00;0.23;121.54;;;;;19.70;1.00;;;;;;2277583;61;1849;-85
2022/04/22 07:14:21;191639.00;0.64;331.53;77503.00;0.26;134.72;;;;;19.80;1.00;;;;;;2277464;61;1039;-85
2022/04/22 07:16:49;200657.00;0.67;347.05;80305.00;0.27;139.56;;;;;18.80;1.00;;;;;;2277539;61;2002;-85
2022/04/22 07:19:16;329076.00;1.10;567.90;120560.00;0.40;209.05;;;;;18.10;1.00;;;;;;2275851;61;1367;-85
2022/04/22 07:21:43;196656.00;0.66;340.17;76788.00;0.26;133.49;;;;;18.00;1.00;;;;;;2277608;61;1098;-83
2022/04/22 07:24:13;177821.00;0.59;307.74;79170.00;0.26;137.60;;;;;18.10;1.00;;;;;;2277271;61;1143;-86
2022/04/22 07:26:44;207986.00;0.69;359.67;86572.00;0.29;150.39;;;;;17.20;1.00;;;;;;2277694;61;930;-85
2022/04/22 07:29:14;342819.00;1.14;591.52;76920.00;0.26;133.72;;;;;17.20;1.00;;;;;;2277594;61;1429;-85
2022/04/22 07:31:41;336681.00;1.12;580.97;83329.00;0.28;144.79;;;;;17.50;1.00;;;;;;2277778;61;1032;-86
2022/04/22 07:34:09;193436.00;0.64;334.62;83202.00;0.28;144.57;;;;;18.50;1.00;;;;;;2277612;61;1081;-86
2022/04/22 07:36:38;217101.00;0.72;375.36;82148.00;0.27;142.75;;;;;19.70;1.00;;;;;;2277694;61;1071;-85
2022/04/22 07:39:05;202855.00;0.68;350.84;89454.00;0.30;155.36;;;;;20.40;1.00;;;;;;2277721;61;2005;-86
2022/04/22 07:41:38;161460.00;0.54;279.55;83263.00;0.28;144.67;;;;;20.40;1.00;;;;;;2277685;61;1176;-86
2022/04/22 07:46:58;262245.00;0.87;453.01;0.00;0.00;0.62;;;;;21.20;1.00;;;;;;2277470;61;705;-87
2022/04/22 07:49:26;212941.00;0.71;368.20;74206.00;0.25;129.03;;;;;20.80;1.00;;;;;;2277396;61;1365;-86
2022/04/22 07:51:53;175626.00;0.59;303.96;78464.00;0.26;136.38;;;;;20.10;1.00;;;;;;2277251;61;1276;-85
2022/04/22 07:54:20;286513.00;0.96;494.73;83925.00;0.28;145.82;;;;;18.60;1.00;;;;;;2277152;61;1128;-84
2022/04/22 07:56:48;347203.00;1.16;599.05;97207.00;0.32;168.75;;;;;17.50;1.00;;;;;;2277103;61;1457;-86
2022/04/22 07:59:15;315167.00;1.05;543.99;82542.00;0.28;143.43;;;;;18.40;1.00;;;;;;2277505;61;2022;-84
2022/04/22 08:01:42;270940.00;0.90;467.96;76260.00;0.25;132.58;;;;;19.50;1.00;;;;;;2277547;61;1110;-86
2022/04/22 08:04:10;272921.00;0.91;471.37;78066.00;0.26;135.70;;;;;19.70;1.00;;;;;;2277490;61;1142;-86
2022/04/22 08:06:38;529766.00;1.77;913.09;78501.00;0.26;136.45;;;;;19.00;1.00;;;;;;2277488;61;944;-83
2022/04/22 08:09:05;222169.00;0.74;384.08;79220.00;0.26;137.69;;;;;17.80;1.00;;;;;;2277598;61;1283;-86
2022/04/22 08:11:31;494302.00;1.65;852.01;77726.00;0.26;135.11;;;;;18.70;1.00;;;;;;2277098;61;1149;-85
2022/04/22 08:14:00;185914.00;0.62;321.67;80387.00;0.27;139.71;;;;;18.90;1.00;;;;;;2276906;61;1033;-87
2022/04/22 08:16:27;288000.00;0.96;497.29;84248.00;0.28;146.37;;;;;19.50;1.00;;;;;;2276973;61;1171;-86
2022/04/22 08:18:54;272482.00;0.91;470.61;98921.00;0.33;171.71;;;;;19.20;1.00;;;;;;2276913;61;1924;-85
2022/04/22 08:21:21;260863.00;0.87;450.63;88608.00;0.30;153.90;;;;;20.60;1.00;;;;;;2276821;61;1055;-87
2022/04/22 08:23:48;189486.00;0.63;327.82;87439.00;0.29;151.89;;;;;21.00;1.00;;;;;;2276902;61;1146;-86
2022/04/22 08:26:15;279144.00;0.93;482.07;83581.00;0.28;145.22;;;;;19.60;1.00;;;;;;2276846;61;1082;-86
2022/04/22 08:28:43;318764.00;1.06;550.17;86282.00;0.29;149.89;;;;;18.70;1.00;;;;;;2276707;61;1402;-85
2022/04/22 08:31:14;237909.00;0.79;411.15;82059.00;0.27;142.59;;;;;19.10;1.00;;;;;;2276742;61;1036;-85
2022/04/22 08:33:43;267430.00;0.89;461.92;73757.00;0.25;128.25;;;;;18.70;1.00;;;;;;2276950;61;1142;-86
2022/04/22 08:36:10;214860.00;0.72;371.50;74723.00;0.25;129.92;;;;;18.80;1.00;;;;;;2276918;61;1212;-86
2022/04/22 08:38:37;176514.00;0.59;305.49;84740.00;0.28;147.22;;;;;19.30;1.00;;;;;;2276768;61;1911;-87
2022/04/22 08:41:05;232002.00;0.77;400.99;84259.00;0.28;146.39;;;;;19.70;1.00;;;;;;2276847;61;1119;-88
2022/04/22 08:43:33;247897.00;0.83;428.33;77539.00;0.26;134.79;;;;;18.50;1.00;;;;;;2276734;61;1102;-84
2022/04/22 08:46:00;259703.00;0.87;448.64;83610.00;0.28;145.27;;;;;18.80;1.00;;;;;;2276655;61;1060;-85
2022/04/22 08:51:16;196910.00;0.66;340.60;79662.00;0.27;138.45;;;;;17.90;1.00;;;;;;2276719;61;683;-86
2022/04/22 08:53:50;134097.00;0.45;232.39;0.00;0.00;0.62;;;;;17.80;1.00;;;;;;2276715;61;1065;-86
2022/04/22 08:56:19;168228.00;0.56;291.21;81975.00;0.27;142.45;;;;;17.20;1.00;;;;;;2276692;61;1177;-86
2022/04/22 08:58:46;38880.00;0.13;67.95;0.00;0.00;0.62;;;;;17.70;1.00;;;;;;2276540;61;1936;-86
2022/04/22 09:01:14;81908.00;0.27;142.33;0.00;0.00;0.62;;;;;17.10;1.00;;;;;;2276787;61;1210;-86
2022/04/22 09:03:42;0.00;0.00;0.62;0.00;0.00;0.62;;;;;17.80;1.00;;;;;;2276673;61;1059;-86
2022/04/22 09:06:10;73318.00;0.24;127.49;0.00;0.00;0.62;;;;;17.70;1.00;;;;;;2276550;61;1138;-87
2022/04/22 09:08:37;75977.00;0.25;132.09;0.00;0.00;0.62;;;;;17.40;1.00;;;;;;2276438;61;1312;-86
2022/04/22 09:11:05;13502.00;0.05;24.02;77751.00;0.26;135.15;;;;;17.10;1.00;;;;;;2276548;61;1110;-87
2022/04/22 09:13:32;117665344.00;392.22;65989808.00;0.00;0.00;0.62;;;;;17.00;1.00;;;;;;2276721;61;1042;-86
2022/04/22 09:16:00;54457.00;0.18;94.89;0.00;0.00;0.62;;;;;17.10;1.00;;;;;;2276651;61;1168;-85
2022/04/22 09:18:27;128190.00;0.43;222.21;10326.00;0.03;18.51;;;;;17.60;1.00;;;;;;2276643;61;1913;-86
2022/04/22 09:21:02;43795.00;0.15;76.45;0.00;0.00;0.62;;;;;17.00;1.00;;;;;;2276536;61;1304;-86
2022/04/22 09:23:33;60689.00;0.20;105.67;0.00;0.00;0.62;;;;;16.60;1.00;;;;;;2276396;61;1045;-86
2022/04/22 09:26:01;0.00;0.00;0.62;0.00;0.00;0.62;;;;;16.40;1.00;;;;;;2276494;61;1087;-87
2022/04/22 09:28:28;260830.00;0.87;450.58;27226.00;0.09;47.78;;;;;16.70;1.00;;;;;;2276412;61;1071;-85
2022/04/22 09:30:59;57857.00;0.19;100.77;0.00;0.00;0.62;;;;;16.30;1.00;;;;;;2276410;61;1463;-85
2022/04/22 09:33:27;118827.00;0.40;206.06;0.00;0.00;0.62;;;;;16.10;1.00;;;;;;2276609;61;1110;-86
2022/04/22 09:44:27;19038.00;0.06;33.60;0.00;0.00;0.62;;;;;16.50;1.00;;;;;;2276584;61;648;-85
2022/04/22 09:47:12;245714.00;0.82;424.58;85008.00;0.28;147.69;;;;;17.00;1.00;;;;;;2276446;61;1164;-86
2022/04/22 09:49:43;268783.00;0.90;464.25;76429.00;0.25;132.87;;;;;17.40;1.00;;;;;;2276022;61;1369;-85
2022/04/22 09:52:11;259736.00;0.87;448.69;105135.00;0.35;182.43;;;;;17.10;1.00;;;;;;2276592;61;1172;-84
2022/04/22 09:54:39;56872.00;0.19;99.07;0.00;0.00;0.62;;;;;17.30;1.00;;;;;;2276579;61;1141;-86
2022/04/22 09:57:06;36868.00;0.12;64.47;0.00;0.00;0.62;;;;;18.30;1.00;;;;;;2276458;61;1086;-85
2022/04/22 09:59:35;0.00;0.00;0.62;0.00;0.00;0.62;;;;;18.40;1.00;;;;;;2276424;61;2001;-86
2022/04/22 10:02:02;22771.00;0.08;40.07;0.00;0.00;0.62;;;;;17.90;1.00;;;;;;2276464;61;1118;-86
2022/04/22 10:04:31;0.00;0.00;0.62;0.00;0.00;0.62;;;;;17.00;1.00;;;;;;2276524;61;1036;-85
2022/04/22 10:07:01;0.00;0.00;0.62;0.00;0.00;0.62;;;;;16.90;1.00;;;;;;2276468;61;1120;-85
2022/04/22 10:09:30;37940.00;0.13;66.32;0.00;0.00;0.62;;;;;17.30;1.00;;;;;;2276383;61;1395;-85
2022/04/22 10:11:59;30538.00;0.10;53.51;0.00;0.00;0.62;;;;;17.20;1.00;;;;;;2276542;61;1106;-86
2022/04/22 10:14:36;0.00;0.00;0.62;0.00;0.00;0.62;;;;;17.00;1.00;;;;;;2276415;61;1080;-85
2022/04/22 10:17:04;0.00;0.00;0.62;0.00;0.00;0.62;;;;;17.00;1.00;;;;;;2276281;61;1052;-85
2022/04/22 10:19:34;30718.00;0.10;53.83;0.00;0.00;0.62;;;;;16.50;1.00;;;;;;2276198;61;1923;-86
2022/04/22 10:22:01;171370.00;0.57;296.63;33945.00;0.11;59.41;;;;;16.70;1.00;;;;;;2276364;61;1087;-85
2022/04/22 10:24:32;0.00;0.00;0.62;0.00;0.00;0.62;;;;;17.10;1.00;;;;;;2276219;61;1138;-85
2022/04/22 10:27:00;90712.00;0.30;157.54;0.00;0.00;0.62;;;;;16.90;1.00;;;;;;2276244;61;1128;-85
2022/04/22 10:29:30;0.00;0.00;0.62;0.00;0.00;0.62;;;;;17.10;1.00;;;;;;2275935;61;1376;-85
2022/04/22 10:31:57;5240.00;0.02;9.70;0.00;0.00;0.62;;;;;17.40;1.00;;;;;;2276337;61;1144;-84
2022/04/22 10:34:39;53524.00;0.18;93.28;0.00;0.00;0.62;;;;;17.40;1.00;;;;;;2276373;61;1005;-86
2022/04/22 10:37:06;0.00;0.00;0.62;0.00;0.00;0.62;;;;;17.40;1.00;;;;;;2276490;61;1070;-85
2022/04/22 10:39:35;31744.00;0.11;55.60;0.00;0.00;0.62;;;;;17.80;1.00;;;;;;2276113;61;2010;-85
2022/04/22 10:42:02;19112.00;0.06;33.73;0.00;0.00;0.62;;;;;17.50;1.00;;;;;;2276392;61;1117;-85
2022/04/22 10:47:14;91734.00;0.31;159.30;0.00;0.00;0.62;;;;;17.00;1.00;;;;;;2276421;61;724;-85
2022/04/22 10:49:43;15719.00;0.05;27.86;0.00;0.00;0.62;;;;;17.10;1.00;;;;;;2276215;61;1297;-86